createdAt,value
2023-05-03T00:00:18.716Z,13.16
2023-05-03T00:02:48.598Z,13.13
2023-05-03T00:05:17.858Z,13.08
2023-05-03T00:07:47.355Z,13.04
2023-05-03T00:10:16.852Z,12.98
2023-05-03T00:12:45.970Z,12.96
2023-05-03T00:15:14.441Z,12.93
2023-05-03T00:17:42.916Z,12.87
2023-05-03T00:20:13.190Z,12.86
2023-05-03T00:22:41.518Z,12.86
2023-05-03T00:25:10.987Z,12.82
2023-05-03T00:27:39.489Z,12.80
2023-05-03T00:30:10.025Z,12.79
2023-05-03T00:32:38.754Z,12.76
2023-05-03T00:35:10.470Z,12.76
2023-05-03T00:37:40.380Z,12.75
2023-05-03T00:40:10.550Z,12.72
2023-05-03T00:42:38.898Z,12.71
2023-05-03T00:45:11.498Z,12.70
2023-05-03T00:47:40.586Z,12.71
2023-05-03T00:50:11.895Z,12.71
2023-05-03T00:52:42.712Z,12.71
2023-05-03T00:55:11.554Z,12.72
2023-05-03T00:57:39.854Z,12.74
2023-05-03T01:00:13.608Z,12.75
2023-05-03T01:02:42.221Z,12.77
2023-05-03T01:05:11.215Z,12.77
2023-05-03T01:07:50.570Z,12.75
2023-05-03T01:10:30.431Z,12.78
2023-05-03T01:13:09.184Z,12.76
2023-05-03T01:15:47.045Z,12.75
2023-05-03T01:18:22.780Z,12.74
2023-05-03T01:20:54.186Z,12.75
2023-05-03T01:23:34.787Z,12.75
2023-05-03T01:26:21.680Z,12.75
2023-05-03T01:28:50.329Z,12.74
2023-05-03T01:31:25.378Z,12.77
2023-05-03T01:34:10.863Z,12.77
2023-05-03T01:36:41.351Z,12.77
2023-05-03T01:39:16.366Z,12.76
2023-05-03T01:41:47.017Z,12.75
2023-05-03T01:44:16.433Z,12.76
2023-05-03T01:46:49.714Z,12.74
2023-05-03T01:49:18.062Z,12.75
2023-05-03T01:51:46.377Z,12.72
2023-05-03T01:54:18.160Z,12.73
2023-05-03T01:56:47.986Z,12.74
2023-05-03T01:59:16.317Z,12.72
2023-05-03T02:01:44.604Z,12.72
2023-05-03T02:04:13.003Z,12.74
2023-05-03T02:06:41.323Z,12.73
2023-05-03T02:09:09.675Z,12.73
2023-05-03T02:11:37.988Z,12.74
2023-05-03T02:14:08.040Z,12.74
2023-05-03T02:16:36.393Z,12.74
2023-05-03T02:19:05.499Z,12.74
2023-05-03T02:21:35.719Z,12.73
2023-05-03T02:24:04.087Z,12.73
2023-05-03T02:26:32.363Z,12.73
2023-05-03T02:29:00.664Z,12.73
2023-05-03T02:31:30.440Z,12.73
2023-05-03T02:33:58.829Z,12.74
2023-05-03T02:36:27.670Z,12.74
2023-05-03T02:38:56.072Z,12.73
2023-05-03T02:41:24.497Z,12.74
2023-05-03T02:43:52.821Z,12.71
2023-05-03T02:46:21.272Z,12.73
2023-05-03T02:48:50.993Z,12.72
2023-05-03T02:51:19.278Z,12.72
2023-05-03T02:53:47.635Z,12.71
2023-05-03T02:56:15.975Z,12.71
2023-05-03T02:58:44.436Z,12.70
2023-05-03T03:01:13.113Z,12.69
2023-05-03T03:03:41.592Z,12.70
2023-05-03T03:06:11.460Z,12.69
2023-05-03T03:08:39.985Z,12.69
2023-05-03T03:11:08.627Z,12.71
2023-05-03T03:13:39.817Z,12.71
2023-05-03T03:16:09.067Z,12.73
2023-05-03T03:18:37.656Z,12.70
2023-05-03T03:21:06.425Z,12.72
2023-05-03T03:23:36.103Z,12.71
2023-05-03T03:26:04.506Z,12.71
2023-05-03T03:28:32.785Z,12.72
2023-05-03T03:31:01.363Z,12.72
2023-05-03T03:33:29.692Z,12.72
2023-05-03T03:35:58.154Z,12.73
2023-05-03T03:38:26.542Z,12.72
2023-05-03T03:40:56.330Z,12.74
2023-05-03T03:43:24.774Z,12.73
2023-05-03T03:45:53.083Z,12.73
2023-05-03T03:48:21.426Z,12.69
2023-05-03T03:50:52.790Z,12.73
2023-05-03T03:53:21.163Z,12.72
2023-05-03T03:55:49.461Z,12.70
2023-05-03T03:58:19.128Z,12.69
2023-05-03T04:00:49.264Z,12.70
2023-05-03T04:03:17.765Z,12.70
2023-05-03T04:05:49.300Z,12.70
2023-05-03T04:08:20.508Z,12.70
2023-05-03T04:10:48.813Z,12.70
2023-05-03T04:13:18.495Z,12.71
2023-05-03T04:15:49.751Z,12.72
2023-05-03T04:18:18.064Z,12.72
2023-05-03T04:20:46.458Z,12.71
2023-05-03T04:23:14.977Z,12.69
2023-05-03T04:25:48.476Z,12.73
2023-05-03T04:28:18.685Z,12.73
2023-05-03T04:30:47.404Z,12.74
2023-05-03T04:33:16.139Z,12.75
2023-05-03T04:35:50.197Z,12.75
2023-05-03T04:38:20.872Z,12.76
2023-05-03T04:40:49.365Z,12.74
2023-05-03T04:43:19.056Z,12.77
2023-05-03T04:45:47.370Z,12.78
2023-05-03T04:48:18.105Z,12.77
2023-05-03T04:50:46.670Z,12.80
2023-05-03T04:53:15.565Z,12.81
2023-05-03T04:55:43.846Z,12.83
2023-05-03T04:58:15.170Z,12.83
2023-05-03T05:00:47.138Z,12.83
2023-05-03T05:03:18.528Z,12.82
2023-05-03T05:05:47.375Z,12.87
2023-05-03T05:08:16.089Z,12.87
2023-05-03T05:10:44.779Z,12.89
2023-05-03T05:13:13.376Z,12.91
2023-05-03T05:15:44.601Z,12.94
2023-05-03T05:18:14.314Z,12.97
2023-05-03T05:20:42.649Z,12.99
2023-05-03T05:23:11.022Z,12.99
2023-05-03T05:25:39.303Z,13.02
2023-05-03T05:28:07.696Z,13.03
2023-05-03T05:30:36.258Z,13.06
2023-05-03T05:33:04.957Z,13.09
2023-05-03T05:35:35.431Z,13.10
2023-05-03T05:38:03.795Z,13.13
2023-05-03T05:40:32.078Z,13.13
2023-05-03T05:43:00.509Z,13.20
2023-05-03T05:45:28.842Z,13.23
2023-05-03T05:47:57.119Z,13.29
2023-05-03T05:50:25.556Z,13.33
2023-05-03T05:52:56.127Z,13.39
2023-05-03T05:55:24.507Z,13.44
2023-05-03T05:57:52.803Z,13.46
2023-05-03T06:00:22.089Z,13.50
2023-05-03T06:02:51.015Z,13.56
2023-05-03T06:05:19.519Z,13.61
2023-05-03T06:07:47.914Z,13.63
2023-05-03T06:10:17.732Z,13.66
2023-05-03T06:12:46.055Z,13.69
2023-05-03T06:15:14.343Z,13.71
2023-05-03T06:17:42.745Z,13.76
2023-05-03T06:20:12.907Z,13.77
2023-05-03T06:22:41.406Z,13.82
2023-05-03T06:25:10.478Z,13.87
2023-05-03T06:27:40.144Z,13.89
2023-05-03T06:30:10.269Z,13.92
2023-05-03T06:32:40.699Z,13.93
2023-05-03T06:35:10.308Z,13.95
2023-05-03T06:37:38.681Z,13.96
2023-05-03T06:40:13.614Z,13.98
2023-05-03T06:42:43.305Z,14.01
2023-05-03T06:45:12.378Z,14.04
2023-05-03T06:47:42.954Z,14.06
2023-05-03T06:50:17.920Z,14.09
2023-05-03T06:52:46.398Z,14.12
2023-05-03T06:55:14.699Z,14.15
2023-05-03T06:57:44.452Z,14.19
2023-05-03T07:00:14.698Z,14.22
2023-05-03T07:02:43.151Z,14.26
2023-05-03T07:05:11.940Z,14.30
2023-05-03T07:07:40.340Z,14.33
2023-05-03T07:10:09.583Z,14.35
2023-05-03T07:12:38.020Z,14.40
2023-05-03T07:15:09.320Z,14.42
2023-05-03T07:17:37.654Z,14.47
2023-05-03T07:20:07.361Z,14.50
2023-05-03T07:22:35.648Z,14.55
2023-05-03T07:25:04.875Z,14.61
2023-05-03T07:27:33.285Z,14.66
2023-05-03T07:30:01.817Z,14.68
2023-05-03T07:32:32.062Z,14.76
2023-05-03T07:35:05.915Z,14.85
2023-05-03T07:37:34.232Z,14.90
2023-05-03T07:40:02.739Z,14.98
2023-05-03T07:42:31.313Z,15.05
2023-05-03T07:45:01.089Z,15.13
2023-05-03T07:47:29.475Z,15.21
2023-05-03T07:49:59.365Z,15.26
2023-05-03T07:52:27.671Z,15.31
2023-05-03T07:54:59.081Z,15.38
2023-05-03T07:57:27.418Z,15.45
2023-05-03T07:59:55.723Z,15.53
2023-05-03T08:02:24.107Z,15.59
2023-05-03T08:04:52.840Z,15.65
2023-05-03T08:07:23.401Z,15.73
2023-05-03T08:09:58.585Z,15.82
2023-05-03T08:12:27.336Z,15.90
2023-05-03T08:14:56.235Z,15.97
2023-05-03T08:17:24.786Z,16.07
2023-05-03T08:19:53.205Z,16.16
2023-05-03T08:22:25.303Z,16.20
2023-05-03T08:24:54.112Z,16.28
2023-05-03T08:27:23.443Z,16.35
2023-05-03T08:29:52.034Z,16.36
2023-05-03T08:32:21.299Z,16.41
2023-05-03T08:34:50.408Z,16.47
2023-05-03T08:37:18.824Z,16.50
2023-05-03T08:39:48.606Z,16.54
2023-05-03T08:42:17.231Z,16.57
2023-05-03T08:44:49.515Z,16.60
2023-05-03T08:47:18.668Z,16.66
2023-05-03T08:49:53.403Z,16.71
2023-05-03T08:52:23.781Z,16.74
2023-05-03T08:54:53.447Z,16.83
2023-05-03T08:57:25.285Z,16.88
2023-05-03T09:00:00.569Z,16.97
2023-05-03T09:02:29.898Z,17.07
2023-05-03T09:04:58.381Z,17.17
2023-05-03T09:07:26.715Z,17.24
2023-05-03T09:09:58.033Z,17.32
2023-05-03T09:12:37.058Z,17.40
2023-05-03T09:15:07.093Z,17.43
2023-05-03T09:17:35.443Z,17.48
2023-05-03T09:20:04.047Z,17.55
2023-05-03T09:22:34.352Z,17.61
2023-05-03T09:25:04.624Z,17.67
2023-05-03T09:27:33.221Z,17.73
2023-05-03T09:30:20.357Z,17.77
2023-05-03T09:32:51.966Z,17.84
2023-05-03T09:35:20.854Z,17.92
2023-05-03T09:37:49.276Z,17.97
2023-05-03T09:40:19.450Z,18.00
2023-05-03T09:43:12.961Z,18.01
2023-05-03T09:45:41.341Z,18.06
2023-05-03T09:48:10.017Z,18.08
2023-05-03T09:50:38.601Z,18.11
2023-05-03T09:53:08.538Z,18.17
2023-05-03T09:55:40.181Z,18.20
2023-05-03T09:58:09.320Z,18.27
2023-05-03T10:00:43.963Z,18.29
2023-05-03T10:03:14.139Z,18.34
2023-05-03T10:05:47.970Z,18.40
2023-05-03T10:08:25.932Z,18.47
2023-05-03T10:10:55.992Z,18.55
2023-05-03T10:13:24.671Z,18.58
2023-05-03T10:15:58.887Z,18.63
2023-05-03T10:18:32.096Z,18.70
2023-05-03T10:21:06.007Z,18.79
2023-05-03T10:23:34.376Z,18.92
2023-05-03T10:26:17.218Z,19.04
2023-05-03T10:28:46.348Z,19.21
2023-05-03T10:31:46.853Z,19.42
2023-05-03T10:34:23.328Z,19.61
2023-05-03T10:36:54.474Z,19.80
2023-05-03T10:39:23.222Z,19.97
2023-05-03T10:42:01.499Z,20.10
2023-05-03T10:44:36.369Z,20.26
2023-05-03T10:47:15.350Z,20.40
2023-05-03T10:49:43.832Z,20.59
2023-05-03T10:52:49.871Z,20.74
2023-05-03T10:55:20.976Z,20.81
2023-05-03T10:57:51.204Z,20.95
2023-05-03T11:00:25.728Z,21.08
2023-05-03T11:03:28.567Z,21.11
2023-05-03T11:05:57.525Z,21.16
2023-05-03T11:08:30.636Z,21.23
2023-05-03T11:11:00.289Z,21.38
2023-05-03T11:13:30.108Z,21.49
2023-05-03T11:15:58.739Z,21.65
2023-05-03T11:18:28.608Z,21.77
2023-05-03T11:20:57.149Z,21.96
2023-05-03T11:23:28.875Z,21.89
2023-05-03T11:25:58.187Z,21.95
2023-05-03T11:28:27.397Z,22.03
2023-05-03T11:30:57.499Z,22.15
2023-05-03T11:33:26.090Z,22.26
2023-05-03T11:35:57.289Z,22.35
2023-05-03T11:38:26.048Z,22.37
2023-05-03T11:40:54.324Z,22.38
2023-05-03T11:43:22.722Z,22.34
2023-05-03T11:45:55.721Z,22.28
2023-05-03T11:48:27.738Z,22.23
2023-05-03T11:50:57.212Z,22.16
2023-05-03T11:53:27.458Z,22.09
2023-05-03T11:55:56.741Z,22.03
2023-05-03T11:58:27.461Z,21.95
2023-05-03T12:00:57.928Z,21.90
2023-05-03T12:03:32.273Z,21.86
2023-05-03T12:06:03.154Z,21.79
2023-05-03T12:08:37.137Z,21.75
2023-05-03T12:11:09.813Z,21.68
2023-05-03T12:13:40.846Z,21.66
2023-05-03T12:16:14.696Z,21.64
2023-05-03T12:18:56.033Z,21.68
2023-05-03T12:23:58.083Z,21.87
2023-05-03T12:26:27.812Z,22.01
2023-05-03T12:28:57.230Z,22.11
2023-05-03T12:31:29.060Z,22.20
2023-05-03T12:36:32.417Z,22.28
2023-05-03T12:39:02.120Z,22.30
2023-05-03T12:44:03.370Z,22.36
2023-05-03T12:46:34.461Z,22.41
2023-05-03T12:49:07.581Z,22.43
2023-05-03T12:51:40.985Z,22.48
2023-05-03T12:54:11.795Z,22.54
2023-05-03T12:56:41.357Z,22.60
2023-05-03T13:06:58.874Z,23.00
2023-05-03T13:09:38.510Z,23.13
2023-05-03T13:12:18.267Z,23.25
2023-05-03T13:14:49.814Z,23.32
2023-05-03T13:17:20.441Z,23.38
2023-05-03T13:19:51.391Z,23.43
2023-05-03T13:22:20.173Z,23.50
2023-05-03T13:24:52.505Z,23.56
2023-05-03T13:27:20.860Z,23.62
2023-05-03T13:29:49.679Z,23.68
2023-05-03T13:32:18.631Z,23.75
2023-05-03T13:34:47.143Z,23.79
2023-05-03T13:37:18.641Z,23.87
2023-05-03T13:39:47.316Z,23.90
2023-05-03T13:42:15.953Z,23.94
2023-05-03T13:44:47.075Z,23.96
2023-05-03T13:47:15.647Z,24.05
2023-05-03T13:49:46.972Z,24.11
2023-05-03T13:52:16.781Z,24.16
2023-05-03T13:54:45.315Z,24.18
2023-05-03T13:57:13.746Z,24.14
2023-05-03T13:59:42.557Z,24.14
2023-05-03T14:02:11.027Z,24.09
2023-05-03T14:04:39.517Z,24.07
2023-05-03T14:07:07.981Z,24.13
2023-05-03T14:09:39.656Z,24.15
2023-05-03T14:12:09.225Z,24.13
2023-05-03T14:14:37.792Z,24.15
2023-05-03T14:17:06.622Z,24.16
2023-05-03T14:19:37.329Z,24.18
2023-05-03T14:22:05.733Z,24.20
2023-05-03T14:24:34.088Z,24.21
2023-05-03T14:27:04.011Z,24.23
2023-05-03T14:29:32.392Z,24.22
2023-05-03T14:32:01.160Z,24.25
2023-05-03T14:34:30.013Z,24.27
2023-05-03T14:36:58.501Z,24.29
2023-05-03T14:39:27.074Z,24.34
2023-05-03T14:41:56.542Z,24.33
2023-05-03T14:44:28.102Z,24.32
2023-05-03T14:46:58.798Z,24.33
2023-05-03T14:49:27.278Z,24.32
2023-05-03T14:51:55.807Z,24.30
2023-05-03T14:54:24.210Z,24.25
2023-05-03T14:56:52.611Z,24.18
2023-05-03T14:59:21.050Z,24.11
2023-05-03T15:01:53.500Z,24.00
2023-05-03T15:04:23.679Z,23.90
2023-05-03T15:06:52.479Z,23.82
2023-05-03T15:09:21.098Z,23.69
2023-05-03T15:11:49.755Z,23.60
2023-05-03T15:14:19.442Z,23.56
2023-05-03T15:16:49.051Z,23.53
2023-05-03T15:19:18.917Z,23.49
2023-05-03T15:21:48.160Z,23.46
2023-05-03T15:24:17.311Z,23.48
2023-05-03T15:26:46.868Z,23.49
2023-05-03T15:29:16.382Z,23.44
2023-05-03T15:31:45.116Z,23.41
2023-05-03T15:34:13.528Z,23.45
2023-05-03T15:36:43.338Z,23.40
2023-05-03T15:39:13.126Z,23.41
2023-05-03T15:41:41.586Z,23.40
2023-05-03T15:44:10.050Z,23.35
2023-05-03T15:46:40.137Z,23.29
2023-05-03T15:49:11.841Z,23.23
2023-05-03T15:51:40.453Z,23.19
2023-05-03T15:54:10.237Z,23.12
2023-05-03T15:56:38.777Z,23.05
2023-05-03T15:59:07.533Z,22.99
2023-05-03T16:01:37.313Z,22.96
2023-05-03T16:04:07.668Z,22.86
2023-05-03T16:06:36.018Z,22.80
2023-05-03T16:09:06.481Z,22.74
2023-05-03T16:11:36.609Z,22.69
2023-05-03T16:14:09.309Z,22.69
2023-05-03T16:16:38.895Z,22.64
2023-05-03T16:19:08.844Z,22.60
2023-05-03T16:21:37.267Z,22.60
2023-05-03T16:24:06.384Z,22.58
2023-05-03T16:26:36.729Z,22.61
2023-05-03T16:29:05.786Z,22.57
2023-05-03T16:31:34.375Z,22.57
2023-05-03T16:34:03.059Z,22.59
2023-05-03T16:36:32.728Z,22.59
2023-05-03T16:39:01.137Z,22.55
2023-05-03T16:41:29.469Z,22.54
2023-05-03T16:43:59.174Z,22.52
2023-05-03T16:46:27.618Z,22.52
2023-05-03T16:48:55.910Z,22.45
2023-05-03T16:51:24.277Z,22.41
2023-05-03T16:53:53.251Z,22.38
2023-05-03T16:56:21.973Z,22.35
2023-05-03T16:58:51.019Z,22.30
2023-05-03T17:01:21.643Z,22.28
2023-05-03T17:03:50.092Z,22.24
2023-05-03T17:06:18.970Z,22.20
2023-05-03T17:08:47.373Z,22.11
2023-05-03T17:11:16.403Z,22.04
2023-05-03T17:13:45.093Z,21.99
2023-05-03T17:16:16.213Z,21.91
2023-05-03T17:18:46.206Z,21.89
2023-05-03T17:21:14.605Z,21.82
2023-05-03T17:23:43.343Z,21.74
2023-05-03T17:26:13.262Z,21.67
2023-05-03T17:28:42.242Z,21.62
2023-05-03T17:31:10.689Z,21.56
2023-05-03T17:33:39.126Z,21.47
2023-05-03T17:36:09.504Z,21.42
2023-05-03T17:38:38.074Z,21.36
2023-05-03T17:41:08.005Z,21.29
2023-05-03T17:43:36.457Z,21.23
2023-05-03T17:46:11.003Z,21.17
2023-05-03T17:48:42.665Z,21.10
2023-05-03T17:51:13.616Z,21.05
2023-05-03T17:53:42.946Z,21.00
2023-05-03T17:56:15.966Z,20.95
2023-05-03T17:58:44.894Z,20.91
2023-05-03T18:01:13.650Z,20.86
2023-05-03T18:03:42.794Z,20.81
2023-05-03T18:06:14.186Z,20.76
2023-05-03T18:08:42.704Z,20.71
2023-05-03T18:11:11.093Z,20.66
2023-05-03T18:13:40.198Z,20.61
2023-05-03T18:16:09.573Z,20.56
2023-05-03T18:18:38.130Z,20.49
2023-05-03T18:21:07.421Z,20.43
2023-05-03T18:23:37.168Z,20.36
2023-05-03T18:26:05.613Z,20.28
2023-05-03T18:28:34.887Z,20.21
2023-05-03T18:31:03.859Z,20.11
2023-05-03T18:33:34.771Z,20.05
2023-05-03T18:36:03.760Z,19.97
2023-05-03T18:38:32.065Z,19.87
2023-05-03T18:41:01.721Z,19.78
2023-05-03T18:43:31.189Z,19.70
2023-05-03T18:46:02.421Z,19.58
2023-05-03T18:48:31.047Z,19.51
2023-05-03T18:51:02.256Z,19.41
2023-05-03T18:53:31.795Z,19.34
2023-05-03T18:56:02.070Z,19.25
2023-05-03T18:58:30.625Z,19.16
2023-05-03T19:01:00.682Z,19.07
2023-05-03T19:03:31.066Z,18.99
2023-05-03T19:06:03.641Z,18.90
2023-05-03T19:08:32.072Z,18.82
2023-05-03T19:11:09.862Z,18.72
2023-05-03T19:13:39.125Z,18.65
2023-05-03T19:16:08.002Z,18.56
2023-05-03T19:18:41.698Z,18.48
2023-05-03T19:21:12.023Z,18.40
2023-05-03T19:23:40.368Z,18.29
2023-05-03T19:26:10.093Z,18.22
2023-05-03T19:28:38.571Z,18.15
2023-05-03T19:31:07.375Z,18.03
2023-05-03T19:33:36.748Z,17.96
2023-05-03T19:36:07.220Z,17.86
2023-05-03T19:38:36.801Z,17.77
2023-05-03T19:41:08.245Z,17.66
2023-05-03T19:43:38.140Z,17.59
2023-05-03T19:46:06.695Z,17.51
2023-05-03T19:48:35.297Z,17.41
2023-05-03T19:51:05.240Z,17.32
2023-05-03T19:53:33.970Z,17.26
2023-05-03T19:56:03.951Z,17.19
2023-05-03T19:58:33.037Z,17.14
2023-05-03T20:01:02.895Z,17.08
2023-05-03T20:03:31.367Z,17.04
2023-05-03T20:06:00.178Z,16.99
2023-05-03T20:08:28.494Z,16.91
2023-05-03T20:10:56.874Z,16.86
2023-05-03T20:13:31.183Z,16.79
2023-05-03T20:15:59.589Z,16.75
2023-05-03T20:18:29.378Z,16.69
2023-05-03T20:20:57.870Z,16.65
2023-05-03T20:23:26.842Z,16.60
2023-05-03T20:25:55.442Z,16.56
2023-05-03T20:28:24.238Z,16.51
2023-05-03T20:30:52.735Z,16.44
2023-05-03T20:33:21.165Z,16.41
2023-05-03T20:35:50.867Z,16.36
2023-05-03T20:38:19.215Z,16.31
2023-05-03T20:40:47.592Z,16.26
2023-05-03T20:43:16.365Z,16.21
2023-05-03T20:45:45.225Z,16.16
2023-05-03T20:48:13.654Z,16.12
2023-05-03T20:50:42.021Z,16.06
2023-05-03T20:53:11.786Z,16.01
2023-05-03T20:55:40.184Z,15.96
2023-05-03T20:58:08.528Z,15.90
2023-05-03T21:00:36.807Z,15.89
2023-05-03T21:03:05.329Z,15.86
2023-05-03T21:05:34.146Z,15.81
2023-05-03T21:08:02.444Z,15.79
2023-05-03T21:10:32.186Z,15.74
2023-05-03T21:13:00.556Z,15.67
2023-05-03T21:15:36.198Z,15.68
2023-05-03T21:18:06.634Z,15.63
2023-05-03T21:20:35.419Z,15.59
2023-05-03T21:23:04.120Z,15.55
2023-05-03T21:25:33.815Z,15.50
2023-05-03T21:28:02.192Z,15.47
2023-05-03T21:30:30.609Z,15.45
2023-05-03T21:32:59.026Z,15.41
2023-05-03T21:35:27.396Z,15.37
2023-05-03T21:37:55.766Z,15.34
2023-05-03T21:40:24.083Z,15.29
2023-05-03T21:42:53.795Z,15.25
2023-05-03T21:45:30.778Z,15.21
2023-05-03T21:47:59.114Z,15.18
2023-05-03T21:50:27.469Z,15.14
2023-05-03T21:52:55.808Z,15.11
2023-05-03T21:55:24.314Z,15.08
2023-05-03T21:57:53.988Z,15.04
2023-05-03T22:00:22.426Z,15.02
2023-05-03T22:02:51.173Z,15.00
2023-05-03T22:05:19.756Z,14.97
2023-05-03T22:07:48.939Z,14.92
2023-05-03T22:10:17.520Z,14.89
2023-05-03T22:12:46.217Z,14.87
2023-05-03T22:15:16.135Z,14.84
2023-05-03T22:17:44.570Z,14.81
2023-05-03T22:20:13.653Z,14.77
2023-05-03T22:22:41.988Z,14.75
2023-05-03T22:25:11.317Z,14.69
2023-05-03T22:27:39.662Z,14.66
2023-05-03T22:30:10.101Z,14.62
2023-05-03T22:32:39.862Z,14.60
2023-05-03T22:35:11.719Z,14.57
2023-05-03T22:37:40.088Z,14.54
2023-05-03T22:40:10.106Z,14.50
2023-05-03T22:42:38.540Z,14.49
2023-05-03T22:45:08.575Z,14.44
2023-05-03T22:47:36.964Z,14.41
2023-05-03T22:50:08.528Z,14.38
2023-05-03T22:52:36.886Z,14.33
2023-05-03T22:55:07.412Z,14.29
2023-05-03T22:57:36.150Z,14.27
2023-05-03T23:00:05.275Z,14.23
2023-05-03T23:02:34.055Z,14.20
2023-05-03T23:05:04.965Z,14.18
2023-05-03T23:07:34.657Z,14.14
2023-05-03T23:10:04.184Z,14.11
2023-05-03T23:12:32.923Z,14.07
2023-05-03T23:15:04.593Z,14.04
2023-05-03T23:17:33.724Z,14.01
2023-05-03T23:20:02.347Z,13.98
2023-05-03T23:22:30.912Z,13.95
2023-05-03T23:25:00.752Z,13.92
2023-05-03T23:27:29.039Z,13.90
2023-05-03T23:29:58.170Z,13.85
2023-05-03T23:32:27.167Z,13.82
2023-05-03T23:34:58.467Z,13.80
2023-05-03T23:37:26.791Z,13.76
2023-05-03T23:39:58.311Z,13.73
2023-05-03T23:42:28.158Z,13.68
2023-05-03T23:44:56.760Z,13.64
2023-05-03T23:47:25.440Z,13.61
2023-05-03T23:49:56.546Z,13.59
2023-05-03T23:52:27.759Z,13.55
2023-05-03T23:54:56.112Z,13.53
2023-05-03T23:57:24.418Z,13.47
2023-05-03T23:59:54.124Z,13.43
